This is the latest recevied weather packets stored in our database for station/object 9M2SAR-10. If no packets are shown the sender has not sent any weather packets the latest 10 day(s).
| Time | Temp. | Humidity | Pressure | Rain* | Wind** | Luminosity | Snow |
|---|---|---|---|---|---|---|---|
| 1777608075 | 33.89° C | 100% | 1011.8 hPa | - | - | - | - |
| 1777607175 | 33.33° C | 100% | 1011.9 hPa | - | - | - | - |
| 1777606275 | 33.33° C | 100% | 1011.8 hPa | - | - | - | - |
| 1777605375 | 33.33° C | 100% | 1011.9 hPa | - | - | - | - |
| 1777604475 | 31.67° C | 100% | 1012.1 hPa | - | - | - | - |
| 1777603575 | 31.67° C | 100% | 1012 hPa | - | - | - | - |
| 1777602675 | 30.56° C | 100% | 1011.9 hPa | - | - | - | - |
| 1777587374 | 26.11° C | 100% | 1008.5 hPa | - | - | - | - |
| 1777586474 | 26.11° C | 100% | 1008.5 hPa | - | - | - | - |
| 1777584673 | 25.56° C | 100% | 1008.1 hPa | - | - | - | - |
| 1777583773 | 25° C | 100% | 1008.2 hPa | - | - | - | - |
| 1777582877 | 25.56° C | 100% | 1008.1 hPa | - | - | - | - |
| 1777581073 | 26.11° C | 100% | 1008.3 hPa | - | - | - | - |
| 1777580173 | 26.11° C | 100% | 1008.7 hPa | - | - | - | - |
| 1777579273 | 25.56° C | 100% | 1009.4 hPa | - | - | - | - |
| 1777578373 | 24.44° C | 100% | 1009.2 hPa | - | - | - | - |
| 1777577473 | 25° C | 100% | 1009.9 hPa | - | - | - | - |
| 1777576573 | 24.44° C | 100% | 1009.9 hPa | - | - | - | - |
| 1777574773 | 26.11° C | 100% | 1010.3 hPa | - | - | - | - |
| 1777573873 | 26.67° C | 100% | 1010.3 hPa | - | - | - | - |
| 1777570272 | 27.78° C | 100% | 1010.2 hPa | - | - | - | - |
| 1777569372 | 27.78° C | 100% | 1010.6 hPa | - | - | - | - |
| 1777567572 | 27.78° C | 100% | 1011.1 hPa | - | - | - | - |
| 1777565772 | 27.78° C | 100% | 1010.9 hPa | - | - | - | - |
| 1777558571 | 27.78° C | 100% | 1010.2 hPa | - | - | - | - |
* Rain since midnight (hover to see other rain measurements)
** Current wind speed in m/s (hover to see current wind gust speed)